createdAt,value
2018-08-13T00:01:36.396Z,14.87
2018-08-13T00:04:05.276Z,14.86
2018-08-13T00:06:34.459Z,14.82
2018-08-13T00:09:05.492Z,14.77
2018-08-13T00:11:34.434Z,14.77
2018-08-13T00:14:03.300Z,14.76
2018-08-13T00:16:32.378Z,14.78
2018-08-13T00:19:01.403Z,14.80
2018-08-13T00:21:30.049Z,14.81
2018-08-13T00:23:59.237Z,14.78
2018-08-13T00:30:00.031Z,14.76
2018-08-13T00:32:28.768Z,14.73
2018-08-13T00:34:57.994Z,14.73
2018-08-13T00:37:26.816Z,14.75
2018-08-13T00:39:55.832Z,14.76
2018-08-13T00:42:24.963Z,14.77
2018-08-13T00:44:54.020Z,14.77
2018-08-13T00:47:23.471Z,14.78
2018-08-13T00:49:52.502Z,14.77
2018-08-13T00:52:21.667Z,14.76
2018-08-13T00:54:50.514Z,14.74
2018-08-13T00:57:19.260Z,14.66
2018-08-13T00:59:48.193Z,14.67
2018-08-13T01:02:16.874Z,14.69
2018-08-13T01:04:46.073Z,14.69
2018-08-13T01:07:15.106Z,14.62
2018-08-13T01:09:43.985Z,14.62
2018-08-13T01:12:13.150Z,14.58
2018-08-13T01:14:42.049Z,14.58
2018-08-13T01:17:17.378Z,14.57
2018-08-13T01:19:46.247Z,14.51
2018-08-13T01:22:15.045Z,14.48
2018-08-13T01:24:43.848Z,14.44
2018-08-13T01:27:16.864Z,14.47
2018-08-13T01:29:45.713Z,14.41
2018-08-13T01:32:14.614Z,14.40
2018-08-13T01:34:43.520Z,14.44
2018-08-13T01:37:13.006Z,14.43
2018-08-13T01:39:41.881Z,14.42
2018-08-13T01:42:10.773Z,14.38
2018-08-13T01:44:39.476Z,14.38
2018-08-13T01:47:08.622Z,14.35
2018-08-13T01:49:37.253Z,14.33
2018-08-13T01:52:06.100Z,14.31
2018-08-13T01:54:35.045Z,14.28
2018-08-13T01:57:04.200Z,14.22
2018-08-13T01:59:33.698Z,14.21
2018-08-13T02:02:02.489Z,14.24
2018-08-13T02:04:31.242Z,14.25
2018-08-13T02:06:59.937Z,14.26
2018-08-13T02:09:34.425Z,14.09
2018-08-13T02:12:04.350Z,14.30
2018-08-13T02:14:33.688Z,14.29
2018-08-13T02:17:02.503Z,14.24
2018-08-13T02:19:32.443Z,14.20
2018-08-13T02:22:01.802Z,14.18
2018-08-13T02:24:30.753Z,14.15
2018-08-13T02:26:59.834Z,14.17
2018-08-13T02:29:28.944Z,14.21
2018-08-13T02:31:57.946Z,14.22
2018-08-13T02:34:26.875Z,14.19
2018-08-13T02:36:55.954Z,14.15
2018-08-13T02:39:24.906Z,14.17
2018-08-13T02:41:53.633Z,14.13
2018-08-13T02:44:22.574Z,14.09
2018-08-13T02:46:51.367Z,14.01
2018-08-13T02:49:20.538Z,13.94
2018-08-13T02:51:49.250Z,13.85
2018-08-13T02:54:17.940Z,13.82
2018-08-13T02:56:46.659Z,13.77
2018-08-13T02:59:15.631Z,13.73
2018-08-13T03:01:44.401Z,13.72
2018-08-13T03:04:13.147Z,13.66
2018-08-13T03:06:41.961Z,13.57
2018-08-13T03:09:11.969Z,13.58
2018-08-13T03:11:40.846Z,13.54
2018-08-13T03:14:10.033Z,13.55
2018-08-13T03:16:38.851Z,13.50
2018-08-13T03:19:07.492Z,13.44
2018-08-13T03:21:36.602Z,13.44
2018-08-13T03:24:05.525Z,13.43
2018-08-13T03:26:34.509Z,13.43
2018-08-13T03:29:03.422Z,13.39
2018-08-13T03:31:32.216Z,13.41
2018-08-13T03:34:01.027Z,13.40
2018-08-13T03:36:30.045Z,13.44
2018-08-13T03:38:59.153Z,13.51
2018-08-13T03:41:28.671Z,13.51
2018-08-13T03:43:57.310Z,13.51
2018-08-13T03:46:26.154Z,13.56
2018-08-13T03:48:55.151Z,13.62
2018-08-13T03:51:24.076Z,13.63
2018-08-13T03:53:53.211Z,13.62
2018-08-13T03:56:21.869Z,13.57
2018-08-13T03:58:50.817Z,13.64
2018-08-13T04:01:19.558Z,13.66
2018-08-13T04:03:48.374Z,13.67
2018-08-13T04:06:17.152Z,13.60
2018-08-13T04:08:46.240Z,13.63
2018-08-13T04:11:15.058Z,13.66
2018-08-13T04:13:44.571Z,13.75
2018-08-13T04:16:13.637Z,13.80
2018-08-13T04:18:42.906Z,13.84
2018-08-13T04:21:12.043Z,13.86
2018-08-13T04:23:41.030Z,13.85
2018-08-13T04:26:09.897Z,13.90
2018-08-13T04:28:38.733Z,13.91
2018-08-13T04:31:07.534Z,13.89
2018-08-13T04:33:36.726Z,13.85
2018-08-13T04:36:05.621Z,13.76
2018-08-13T04:38:34.463Z,13.67
2018-08-13T04:41:03.303Z,13.71
2018-08-13T04:43:32.070Z,13.75
2018-08-13T04:46:01.020Z,13.67
2018-08-13T04:48:29.950Z,14.18
2018-08-13T04:50:58.808Z,14.47
2018-08-13T04:53:27.669Z,14.77
2018-08-13T04:55:56.525Z,14.60
2018-08-13T04:58:25.464Z,14.43
2018-08-13T05:00:54.569Z,14.73
2018-08-13T05:03:23.701Z,14.96
2018-08-13T05:05:52.488Z,14.84
2018-08-13T05:08:21.516Z,14.77
2018-08-13T05:10:50.465Z,14.70
2018-08-13T05:13:19.554Z,14.78
2018-08-13T05:15:48.601Z,14.91
2018-08-13T05:18:17.506Z,14.95
2018-08-13T05:20:46.354Z,15.25
2018-08-13T05:23:15.552Z,16.15
2018-08-13T05:25:45.336Z,17.27
2018-08-13T05:28:14.283Z,18.45
2018-08-13T05:30:43.089Z,20.44
2018-08-13T05:33:11.974Z,20.23
2018-08-13T05:35:40.956Z,19.13
2018-08-13T05:38:10.067Z,19.44
2018-08-13T05:40:39.172Z,19.62
2018-08-13T05:43:08.741Z,19.32
2018-08-13T05:45:37.822Z,18.46
2018-08-13T05:48:06.579Z,17.69
2018-08-13T05:50:35.832Z,17.20
2018-08-13T05:53:04.675Z,16.83
2018-08-13T05:55:33.342Z,16.60
2018-08-13T05:58:02.089Z,16.51
2018-08-13T06:00:31.006Z,16.34
2018-08-13T06:03:00.079Z,16.15
2018-08-13T06:05:28.990Z,16.04
2018-08-13T06:07:57.981Z,15.94
2018-08-13T06:10:27.069Z,15.99
2018-08-13T06:12:55.764Z,15.90
2018-08-13T06:15:24.644Z,15.79
2018-08-13T06:17:53.359Z,15.80
2018-08-13T06:20:22.265Z,15.83
2018-08-13T06:22:51.028Z,15.76
2018-08-13T06:25:20.013Z,15.73
2018-08-13T06:27:48.859Z,15.87
2018-08-13T06:30:17.656Z,15.94
2018-08-13T06:32:46.544Z,16.03
2018-08-13T06:35:15.534Z,15.98
2018-08-13T06:37:44.955Z,15.94
2018-08-13T06:40:14.031Z,15.92
2018-08-13T06:42:44.077Z,15.99
2018-08-13T06:45:13.101Z,16.06
2018-08-13T06:47:42.085Z,16.18
2018-08-13T06:50:13.036Z,16.25
2018-08-13T06:52:41.816Z,16.27
2018-08-13T06:55:10.825Z,16.27
2018-08-13T06:57:39.853Z,16.28
2018-08-13T07:00:10.884Z,16.32
2018-08-13T07:02:39.762Z,16.29
2018-08-13T07:05:09.973Z,16.29
2018-08-13T07:07:39.786Z,16.17
2018-08-13T07:10:11.823Z,16.17
2018-08-13T07:12:42.749Z,16.14
2018-08-13T07:15:12.027Z,16.07
2018-08-13T07:17:40.950Z,16.09
2018-08-13T07:20:13.188Z,16.12
2018-08-13T07:22:42.416Z,16.19
2018-08-13T07:25:11.820Z,16.23
2018-08-13T07:27:41.562Z,16.32
2018-08-13T07:30:12.373Z,16.35
2018-08-13T07:32:41.477Z,16.32
2018-08-13T07:35:10.609Z,16.31
2018-08-13T07:37:39.255Z,16.35
2018-08-13T07:40:11.605Z,16.41
2018-08-13T07:42:40.975Z,16.59
2018-08-13T07:45:10.230Z,16.63
2018-08-13T07:47:39.168Z,16.73
2018-08-13T07:50:09.765Z,16.81
2018-08-13T07:52:39.144Z,16.96
2018-08-13T07:55:08.461Z,17.08
2018-08-13T07:57:37.765Z,17.04
2018-08-13T08:00:08.391Z,17.08
2018-08-13T08:02:37.420Z,17.21
2018-08-13T08:05:06.901Z,17.33
2018-08-13T08:07:43.553Z,17.33
2018-08-13T08:10:15.874Z,17.41
2018-08-13T08:12:51.501Z,17.45
2018-08-13T08:15:21.244Z,17.40
2018-08-13T08:17:50.040Z,17.36
2018-08-13T08:20:18.777Z,17.40
2018-08-13T08:22:48.238Z,17.38
2018-08-13T08:25:20.010Z,17.53
2018-08-13T08:27:48.883Z,17.61
2018-08-13T08:30:17.624Z,17.58
2018-08-13T08:32:47.636Z,17.63
2018-08-13T08:35:18.422Z,17.68
2018-08-13T08:37:47.952Z,17.83
2018-08-13T08:40:19.262Z,17.96
2018-08-13T08:42:48.959Z,18.06
2018-08-13T08:45:21.223Z,18.18
2018-08-13T08:47:50.811Z,18.16
2018-08-13T08:50:19.950Z,18.16
2018-08-13T08:52:48.913Z,18.02
2018-08-13T08:55:18.470Z,18.04
2018-08-13T08:57:48.824Z,17.92
2018-08-13T09:00:20.870Z,18.06
2018-08-13T09:02:49.757Z,18.20
2018-08-13T09:05:18.846Z,18.19
2018-08-13T09:07:47.941Z,18.17
2018-08-13T09:10:16.944Z,18.15
2018-08-13T09:12:46.138Z,18.31
2018-08-13T09:15:16.898Z,18.61
2018-08-13T09:17:58.090Z,18.87
2018-08-13T09:20:38.021Z,19.16
2018-08-13T09:23:17.930Z,19.42
2018-08-13T09:25:58.233Z,19.95
2018-08-13T09:28:38.186Z,17.13
2018-08-13T09:32:19.859Z,20.25
2018-08-13T09:35:22.582Z,20.28
2018-08-13T09:37:51.425Z,20.10
2018-08-13T09:40:20.315Z,19.93
2018-08-13T09:42:49.341Z,19.83
2018-08-13T09:45:18.243Z,19.56
2018-08-13T09:47:47.353Z,19.67
2018-08-13T09:50:18.242Z,18.96
2018-08-13T09:52:47.852Z,19.90
2018-08-13T09:55:17.392Z,20.27
2018-08-13T09:57:47.114Z,20.65
2018-08-13T10:00:24.091Z,20.99
2018-08-13T10:02:52.914Z,20.89
2018-08-13T10:05:22.141Z,21.23
2018-08-13T10:07:51.062Z,21.23
2018-08-13T10:10:20.266Z,21.36
2018-08-13T10:12:50.187Z,21.11
2018-08-13T10:15:19.287Z,20.85
2018-08-13T10:17:48.239Z,20.53
2018-08-13T10:20:18.859Z,20.18
2018-08-13T10:22:47.962Z,19.85
2018-08-13T10:25:16.810Z,19.69
2018-08-13T10:27:46.111Z,19.52
2018-08-13T10:30:17.686Z,19.23
2018-08-13T10:32:46.739Z,19.10
2018-08-13T10:35:15.522Z,19.53
2018-08-13T10:37:44.355Z,19.53
2018-08-13T10:40:16.272Z,19.52
2018-08-13T10:42:45.445Z,19.53
2018-08-13T10:45:14.619Z,19.33
2018-08-13T10:47:43.449Z,19.07
2018-08-13T10:50:13.770Z,19.00
2018-08-13T10:52:43.080Z,19.02
2018-08-13T10:55:13.681Z,19.11
2018-08-13T10:57:42.998Z,18.97
2018-08-13T11:00:15.206Z,18.98
2018-08-13T11:02:44.122Z,19.04
2018-08-13T11:05:14.157Z,19.42
2018-08-13T11:07:43.141Z,19.65
2018-08-13T11:10:15.382Z,19.69
2018-08-13T11:12:44.333Z,19.39
2018-08-13T11:15:16.077Z,19.06
2018-08-13T11:17:45.362Z,19.01
2018-08-13T11:20:14.692Z,18.96
2018-08-13T11:22:43.903Z,18.96
2018-08-13T11:25:14.593Z,18.99
2018-08-13T11:27:43.918Z,19.07
2018-08-13T11:30:15.280Z,18.98
2018-08-13T11:32:44.376Z,18.97
2018-08-13T11:35:13.840Z,19.02
2018-08-13T11:37:42.799Z,18.93
2018-08-13T11:40:14.114Z,18.93
2018-08-13T11:42:43.193Z,18.96
2018-08-13T11:45:12.015Z,18.53
2018-08-13T11:47:41.509Z,18.37
2018-08-13T11:50:14.490Z,18.25
2018-08-13T11:52:44.456Z,18.33
2018-08-13T11:55:13.349Z,18.08
2018-08-13T11:57:42.134Z,18.33
2018-08-13T12:00:12.563Z,18.21
2018-08-13T12:02:41.365Z,18.46
2018-08-13T12:05:12.471Z,18.66
2018-08-13T12:07:41.643Z,18.93
2018-08-13T12:10:12.055Z,19.60
2018-08-13T12:12:42.070Z,19.76
2018-08-13T12:15:12.082Z,20.21
2018-08-13T12:17:41.677Z,20.36
2018-08-13T12:20:12.812Z,20.80
2018-08-13T12:22:42.122Z,20.86
2018-08-13T12:25:11.213Z,20.87
2018-08-13T12:27:40.719Z,21.51
2018-08-13T12:30:11.388Z,20.94
2018-08-13T12:32:40.419Z,20.04
2018-08-13T12:35:09.397Z,19.19
2018-08-13T12:37:38.110Z,18.64
2018-08-13T12:40:09.346Z,18.21
2018-08-13T12:42:39.521Z,17.80
2018-08-13T12:45:13.451Z,17.69
2018-08-13T12:47:42.640Z,17.48
2018-08-13T12:50:14.147Z,17.40
2018-08-13T12:52:44.100Z,17.39
2018-08-13T12:55:13.465Z,17.15
2018-08-13T12:57:42.513Z,17.11
2018-08-13T13:00:14.041Z,16.97
2018-08-13T13:02:43.274Z,16.83
2018-08-13T13:05:13.727Z,16.84
2018-08-13T13:07:42.404Z,16.78
2018-08-13T13:10:13.701Z,16.89
2018-08-13T13:12:43.099Z,17.08
2018-08-13T13:15:13.637Z,17.11
2018-08-13T13:17:42.605Z,17.32
2018-08-13T13:20:16.164Z,17.57
2018-08-13T13:22:45.455Z,17.83
2018-08-13T13:25:14.399Z,18.22
2018-08-13T13:27:43.455Z,18.58
2018-08-13T13:30:13.834Z,18.67
2018-08-13T13:32:42.913Z,18.75
2018-08-13T13:35:14.529Z,18.79
2018-08-13T13:37:44.489Z,18.76
2018-08-13T13:40:14.758Z,18.90
2018-08-13T13:42:43.792Z,18.86
2018-08-13T13:45:13.374Z,18.95
2018-08-13T13:47:42.531Z,18.97
2018-08-13T13:50:13.862Z,19.11
2018-08-13T13:52:42.853Z,19.24
2018-08-13T13:55:11.921Z,19.32
2018-08-13T13:57:41.055Z,19.24
2018-08-13T14:00:14.403Z,19.24
2018-08-13T14:02:44.274Z,19.27
2018-08-13T14:05:13.217Z,19.38
2018-08-13T14:07:42.194Z,19.25
2018-08-13T14:10:25.857Z,19.23
2018-08-13T14:12:54.626Z,19.45
2018-08-13T14:15:23.944Z,20.47
2018-08-13T14:17:53.116Z,22.10
2018-08-13T14:20:22.523Z,25.21
2018-08-13T14:22:51.802Z,26.39
2018-08-13T14:25:21.128Z,24.74
2018-08-13T14:27:50.263Z,23.05
2018-08-13T14:30:20.477Z,22.56
2018-08-13T14:32:49.823Z,21.91
2018-08-13T14:35:19.622Z,21.16
2018-08-13T14:37:48.971Z,20.84
2018-08-13T14:40:17.928Z,20.37
2018-08-13T14:42:46.925Z,20.31
2018-08-13T14:45:17.206Z,20.21
2018-08-13T14:47:47.415Z,20.05
2018-08-13T14:50:16.876Z,19.78
2018-08-13T14:52:46.987Z,19.62
2018-08-13T14:55:17.036Z,19.45
2018-08-13T14:57:45.829Z,19.07
2018-08-13T15:00:20.821Z,18.89
2018-08-13T15:02:50.099Z,18.84
2018-08-13T15:05:19.507Z,18.79
2018-08-13T15:07:48.722Z,18.59
2018-08-13T15:10:19.484Z,18.69
2018-08-13T15:12:49.365Z,18.62
2018-08-13T15:15:18.246Z,18.65
2018-08-13T15:17:47.383Z,18.61
2018-08-13T15:20:20.682Z,18.57
2018-08-13T15:22:49.916Z,18.56
2018-08-13T15:25:18.868Z,18.56
2018-08-13T15:27:47.928Z,18.53
2018-08-13T15:30:17.901Z,18.50
2018-08-13T15:32:47.820Z,18.44
2018-08-13T15:35:16.698Z,18.48
2018-08-13T15:37:46.264Z,18.49
2018-08-13T15:40:15.334Z,18.57
2018-08-13T15:42:45.147Z,18.62
2018-08-13T15:45:20.577Z,18.66
2018-08-13T15:47:50.019Z,18.60
2018-08-13T15:50:20.281Z,18.61
2018-08-13T15:52:50.009Z,18.60
2018-08-13T15:55:19.438Z,18.49
2018-08-13T15:57:49.651Z,18.54
2018-08-13T16:00:22.083Z,18.59
2018-08-13T16:02:51.513Z,18.47
2018-08-13T16:05:20.699Z,18.43
2018-08-13T16:07:50.067Z,18.41
2018-08-13T16:10:19.620Z,18.38
2018-08-13T16:12:48.577Z,18.37
2018-08-13T16:15:18.324Z,17.29
2018-08-13T16:17:47.199Z,18.33
2018-08-13T16:20:18.189Z,18.38
2018-08-13T16:22:47.773Z,18.53
2018-08-13T16:25:17.294Z,18.60
2018-08-13T16:27:47.935Z,18.64
2018-08-13T16:30:24.021Z,18.68
2018-08-13T16:32:52.957Z,18.71
2018-08-13T16:35:22.953Z,18.70
2018-08-13T16:37:51.793Z,18.59
2018-08-13T16:40:21.137Z,18.51
2018-08-13T16:42:50.811Z,18.52
2018-08-13T16:45:20.714Z,18.44
2018-08-13T16:47:49.721Z,18.41
2018-08-13T16:50:25.257Z,18.40
2018-08-13T16:52:54.559Z,18.36
2018-08-13T16:55:23.567Z,18.41
2018-08-13T16:57:52.572Z,18.49
2018-08-13T17:00:23.275Z,18.56
2018-08-13T17:02:52.458Z,18.61
2018-08-13T17:05:21.336Z,18.57
2018-08-13T17:07:50.373Z,18.59
2018-08-13T17:10:21.516Z,18.61
2018-08-13T17:12:51.278Z,18.49
2018-08-13T17:15:20.263Z,18.51
2018-08-13T17:17:53.686Z,18.46
2018-08-13T17:20:29.368Z,18.36
2018-08-13T17:22:58.581Z,18.26
2018-08-13T17:25:27.830Z,18.17
2018-08-13T17:27:56.739Z,18.08
2018-08-13T17:30:26.916Z,17.98
2018-08-13T17:32:57.279Z,17.95
2018-08-13T17:35:28.261Z,17.86
2018-08-13T17:37:57.364Z,17.81
2018-08-13T17:40:26.610Z,17.77
2018-08-13T17:42:56.062Z,17.72
2018-08-13T17:45:25.514Z,17.67
2018-08-13T17:47:54.675Z,17.60
2018-08-13T17:50:24.082Z,17.55
2018-08-13T17:52:53.244Z,17.49
2018-08-13T17:55:22.292Z,17.39
2018-08-13T17:57:51.211Z,17.34
2018-08-13T18:00:21.292Z,17.22
2018-08-13T18:02:50.294Z,17.11
2018-08-13T18:05:21.444Z,17.02
2018-08-13T18:07:50.565Z,17.04
2018-08-13T18:10:23.194Z,17.00
2018-08-13T18:12:52.650Z,16.93
2018-08-13T18:15:21.533Z,16.87
2018-08-13T18:17:50.477Z,16.80
2018-08-13T18:20:19.397Z,16.76
2018-08-13T18:22:48.327Z,16.70
2018-08-13T18:25:17.479Z,16.61
2018-08-13T18:27:47.565Z,16.55
2018-08-13T18:30:21.905Z,16.50
2018-08-13T18:32:51.293Z,16.42
2018-08-13T18:35:20.275Z,16.35
2018-08-13T18:37:49.239Z,16.27
2018-08-13T18:40:21.344Z,16.20
2018-08-13T18:42:50.332Z,16.13
2018-08-13T18:45:19.290Z,16.07
2018-08-13T18:47:48.898Z,16.00
2018-08-13T18:50:19.121Z,15.94
2018-08-13T18:52:48.070Z,15.92
2018-08-13T18:55:23.519Z,15.05
2018-08-13T18:57:53.361Z,15.81
2018-08-13T19:00:25.782Z,15.78
2018-08-13T19:02:55.091Z,15.74
2018-08-13T19:05:24.667Z,15.67
2018-08-13T19:07:53.722Z,15.67
2018-08-13T19:10:23.146Z,15.60
2018-08-13T19:12:52.196Z,15.49
2018-08-13T19:15:23.656Z,15.46
2018-08-13T19:17:53.238Z,15.40
2018-08-13T19:20:23.903Z,15.36
2018-08-13T19:22:53.463Z,15.32
2018-08-13T19:25:24.056Z,15.24
2018-08-13T19:27:53.426Z,15.16
2018-08-13T19:30:23.312Z,15.17
2018-08-13T19:32:53.385Z,15.11
2018-08-13T19:35:22.507Z,15.05
2018-08-13T19:37:51.652Z,15.01
2018-08-13T19:40:22.702Z,14.91
2018-08-13T19:42:52.341Z,14.81
2018-08-13T19:45:22.194Z,14.74
2018-08-13T19:47:51.963Z,14.67
2018-08-13T19:50:20.906Z,14.59
2018-08-13T19:52:50.276Z,14.54
2018-08-13T19:55:20.460Z,14.49
2018-08-13T19:57:49.337Z,14.47
2018-08-13T20:00:19.838Z,14.44
2018-08-13T20:02:49.556Z,14.40
2018-08-13T20:05:20.120Z,14.35
2018-08-13T20:07:49.767Z,14.30
2018-08-13T20:10:18.827Z,14.24
2018-08-13T20:12:48.900Z,14.25
2018-08-13T20:15:17.905Z,14.26
2018-08-13T20:17:47.643Z,14.22
2018-08-13T20:20:19.320Z,14.21
2018-08-13T20:22:50.095Z,14.23
2018-08-13T20:25:21.799Z,14.27
2018-08-13T20:27:52.607Z,14.30
2018-08-13T20:30:22.904Z,14.28
2018-08-13T20:32:52.959Z,14.29
2018-08-13T20:35:21.851Z,14.26
2018-08-13T20:38:06.588Z,14.30
2018-08-13T20:40:36.495Z,14.33
2018-08-13T20:43:05.645Z,14.34
2018-08-13T20:45:35.634Z,14.34
2018-08-13T20:48:04.701Z,14.33
2018-08-13T20:50:34.451Z,14.29
2018-08-13T20:53:04.642Z,14.19
2018-08-13T20:55:33.907Z,14.18
2018-08-13T20:58:02.787Z,14.18
2018-08-13T21:00:32.313Z,14.18
2018-08-13T21:03:01.252Z,14.14
2018-08-13T21:05:30.004Z,14.16
2018-08-13T21:07:59.711Z,14.17
2018-08-13T21:10:28.693Z,14.14
2018-08-13T21:12:57.647Z,14.12
2018-08-13T21:15:26.574Z,14.15
2018-08-13T21:17:55.519Z,14.02
2018-08-13T21:20:29.592Z,14.00
2018-08-13T21:22:58.756Z,13.98
2018-08-13T21:25:27.520Z,13.96
2018-08-13T21:27:56.815Z,13.80
2018-08-13T21:30:25.686Z,13.70
2018-08-13T21:32:54.856Z,13.64
2018-08-13T21:35:25.861Z,13.40
2018-08-13T21:37:54.696Z,13.37
2018-08-13T21:40:23.501Z,13.39
2018-08-13T21:42:52.725Z,13.37
2018-08-13T21:45:21.509Z,13.34
2018-08-13T21:47:50.191Z,13.33
2018-08-13T21:50:21.197Z,13.34
2018-08-13T21:52:50.761Z,13.34
2018-08-13T21:55:19.864Z,13.34
2018-08-13T21:57:48.820Z,13.33
2018-08-13T22:01:33.093Z,13.27
2018-08-13T22:04:01.939Z,13.14
2018-08-13T22:06:30.954Z,13.15
2018-08-13T22:08:59.969Z,13.13
2018-08-13T22:11:28.637Z,11.89
2018-08-13T22:13:57.376Z,13.12
2018-08-13T22:16:26.088Z,13.08
2018-08-13T22:18:54.727Z,12.96
2018-08-13T22:21:23.468Z,12.93
2018-08-13T22:24:03.163Z,12.92
2018-08-13T22:26:32.022Z,12.90
2018-08-13T22:29:00.947Z,12.89
2018-08-13T22:31:30.010Z,12.87
2018-08-13T22:33:58.701Z,12.87
2018-08-13T22:36:27.386Z,12.88
2018-08-13T22:38:56.930Z,12.72
2018-08-13T22:41:25.707Z,12.70
2018-08-13T22:43:54.643Z,12.63
2018-08-13T22:46:23.369Z,12.62
2018-08-13T22:48:52.273Z,12.64
2018-08-13T22:51:21.126Z,12.65
2018-08-13T22:53:49.939Z,12.64
2018-08-13T22:56:18.704Z,12.63
2018-08-13T22:58:47.771Z,12.62
2018-08-13T23:01:16.716Z,12.60
2018-08-13T23:03:45.468Z,12.53
2018-08-13T23:06:14.346Z,12.48
2018-08-13T23:08:43.086Z,12.43
2018-08-13T23:11:12.078Z,12.34
2018-08-13T23:13:40.965Z,12.32
2018-08-13T23:16:09.688Z,12.31
2018-08-13T23:18:38.536Z,12.32
2018-08-13T23:21:07.744Z,12.33
2018-08-13T23:23:36.950Z,12.32
2018-08-13T23:26:05.843Z,12.28
2018-08-13T23:28:34.617Z,12.30
2018-08-13T23:31:03.786Z,12.29
2018-08-13T23:33:32.808Z,12.27
2018-08-13T23:37:04.297Z,12.26
2018-08-13T23:39:33.450Z,12.25
2018-08-13T23:42:02.751Z,12.28
2018-08-13T23:44:31.702Z,12.28
2018-08-13T23:47:00.621Z,12.22
2018-08-13T23:49:29.441Z,12.20
2018-08-13T23:51:58.743Z,12.21
2018-08-13T23:54:27.470Z,12.24
2018-08-13T23:56:56.172Z,12.23
2018-08-13T23:59:25.123Z,12.26
